Time;durP1;ratioP1;P1;durP2;ratioP2;P2;SDS_P1;SDS_P2;PMS_P1;PMS_P2;Temp;Humidity;BMP_temperature;BMP_pressure;BME280_temperature;BME280_humidity;BME280_pressure;Samples;Min_cycle;Max_cycle;Signal;HPM_P1;HPM_P2
2023/05/29 00:00:20;;;;;;;11.50;2.38;;;10.70;99.90;;;;;;5071873;28;20045;-72
2023/05/29 00:02:50;;;;;;;12.63;2.40;;;10.70;99.90;;;;;;5038076;28;20099;-72
2023/05/29 00:05:16;;;;;;;12.10;2.88;;;10.70;99.90;;;;;;5054291;28;20140;-71
2023/05/29 00:07:43;;;;;;;12.95;2.72;;;10.70;99.90;;;;;;5071917;28;20077;-72
2023/05/29 00:10:10;;;;;;;12.50;2.33;;;10.70;99.90;;;;;;5055325;28;20456;-71
2023/05/29 00:12:36;;;;;;;12.18;2.40;;;10.70;99.90;;;;;;5038258;28;20118;-71
2023/05/29 00:15:06;;;;;;;10.63;2.53;;;10.70;99.90;;;;;;5051708;28;20476;-71
2023/05/29 00:17:32;;;;;;;13.20;2.22;;;10.70;99.90;;;;;;5034947;28;20497;-71
2023/05/29 00:19:58;;;;;;;13.75;2.63;;;10.70;99.90;;;;;;5027090;28;20107;-71
2023/05/29 00:22:25;;;;;;;11.30;1.75;;;10.60;99.90;;;;;;5065562;28;20420;-71
2023/05/29 00:24:51;;;;;;;8.30;1.98;;;10.60;99.90;;;;;;5054792;28;20048;-71
2023/05/29 00:27:16;;;;;;;8.32;1.70;;;10.60;99.90;;;;;;5071351;28;20493;-71
2023/05/29 00:29:42;;;;;;;8.48;1.73;;;10.60;99.90;;;;;;5046790;28;20383;-71
2023/05/29 00:32:07;;;;;;;12.52;2.20;;;10.60;99.90;;;;;;5043063;28;20045;-71
2023/05/29 00:34:33;;;;;;;12.00;2.35;;;10.50;99.90;;;;;;5055290;28;20048;-72
2023/05/29 00:36:59;;;;;;;9.20;1.85;;;10.40;99.90;;;;;;5053690;28;20397;-72
2023/05/29 00:39:24;;;;;;;10.02;2.40;;;10.50;99.90;;;;;;5053334;28;20047;-72
2023/05/29 00:41:50;;;;;;;11.93;2.22;;;10.40;99.90;;;;;;5053447;28;20037;-72
2023/05/29 00:44:20;;;;;;;6.25;1.50;;;10.40;99.90;;;;;;5055762;28;20056;-72
2023/05/29 00:46:46;;;;;;;7.30;1.58;;;10.40;99.90;;;;;;5054321;28;20052;-72
2023/05/29 00:49:13;;;;;;;7.93;1.58;;;10.40;99.90;;;;;;5055487;28;20504;-73
2023/05/29 00:51:39;;;;;;;12.82;2.10;;;10.40;99.90;;;;;;5048909;28;20052;-72
2023/05/29 00:54:07;;;;;;;9.23;1.83;;;10.40;99.90;;;;;;5047218;28;20040;-72
2023/05/29 00:56:35;;;;;;;10.30;2.20;;;10.30;99.90;;;;;;5055537;28;20068;-72
2023/05/29 00:59:01;;;;;;;7.43;1.80;;;10.30;99.90;;;;;;5054149;28;20120;-73
2023/05/29 01:01:27;;;;;;;10.77;1.70;;;10.20;99.90;;;;;;5046010;28;20088;-73
2023/05/29 01:03:57;;;;;;;7.60;1.67;;;10.20;99.90;;;;;;5035232;28;20034;-72
2023/05/29 01:06:23;;;;;;;9.50;1.73;;;10.10;99.90;;;;;;5034167;28;20116;-72
2023/05/29 01:08:49;;;;;;;11.75;1.67;;;10.10;99.90;;;;;;5033954;28;20043;-72
2023/05/29 01:11:28;;;;;;;10.75;1.55;;;10.10;99.90;;;;;;5039449;28;20401;-72
2023/05/29 01:13:57;;;;;;;8.57;1.70;;;10.10;99.90;;;;;;5055070;28;20047;-72
2023/05/29 01:16:35;;;;;;;12.00;2.10;;;10.10;99.90;;;;;;5053736;28;20087;-72
2023/05/29 01:19:16;;;;;;;8.52;1.77;;;10.00;99.90;;;;;;5053838;28;20095;-72
2023/05/29 01:22:13;;;;;;;8.43;2.00;;;9.90;99.90;;;;;;5062449;28;20527;-72
2023/05/29 01:24:58;;;;;;;8.80;1.73;;;9.90;99.90;;;;;;5040343;28;20080;-72
2023/05/29 01:27:28;;;;;;;10.40;2.17;;;9.90;99.90;;;;;;5050565;28;20041;-72
2023/05/29 01:29:56;;;;;;;13.10;2.15;;;9.80;99.90;;;;;;5036182;28;20131;-72
2023/05/29 01:32:22;;;;;;;13.95;1.92;;;9.80;99.90;;;;;;5062779;28;20112;-72
2023/05/29 01:34:48;;;;;;;9.32;2.20;;;9.80;99.90;;;;;;5049785;28;20045;-72
2023/05/29 01:37:13;;;;;;;9.48;2.15;;;9.80;99.90;;;;;;5034668;28;20112;-72
2023/05/29 01:39:39;;;;;;;9.02;1.80;;;9.80;99.90;;;;;;5016989;28;20501;-72
2023/05/29 01:42:06;;;;;;;12.45;2.40;;;9.70;99.90;;;;;;5045486;28;20033;-72
2023/05/29 01:44:32;;;;;;;11.52;1.98;;;9.70;99.90;;;;;;5033247;28;20099;-72
2023/05/29 01:46:57;;;;;;;9.55;1.70;;;9.70;99.90;;;;;;5030762;28;20439;-72
2023/05/29 01:49:24;;;;;;;7.80;2.13;;;9.60;99.90;;;;;;5045247;28;20083;-72
2023/05/29 01:51:50;;;;;;;8.98;2.33;;;9.60;99.90;;;;;;5034332;28;20048;-72
2023/05/29 01:54:16;;;;;;;9.30;2.10;;;9.60;99.90;;;;;;5052936;28;20044;-72
2023/05/29 01:56:42;;;;;;;10.63;2.05;;;9.60;99.90;;;;;;5053222;28;20440;-72
2023/05/29 01:59:10;;;;;;;15.50;2.50;;;9.60;99.90;;;;;;5052964;28;20114;-72
2023/05/29 02:01:39;;;;;;;9.40;1.92;;;9.70;99.90;;;;;;5061074;28;20052;-72
2023/05/29 02:04:05;;;;;;;9.43;2.30;;;9.60;99.90;;;;;;5033177;28;20127;-72
2023/05/29 02:06:30;;;;;;;12.02;2.72;;;9.50;99.90;;;;;;5032887;28;20116;-73
2023/05/29 02:08:56;;;;;;;7.45;1.90;;;9.40;99.90;;;;;;5032908;28;20045;-72
2023/05/29 02:11:22;;;;;;;12.65;2.03;;;9.40;99.90;;;;;;5039542;28;20069;-72
2023/05/29 02:13:47;;;;;;;13.57;2.60;;;9.40;99.90;;;;;;5038090;28;20549;-72
2023/05/29 02:16:13;;;;;;;11.55;2.17;;;9.40;99.90;;;;;;5037505;28;20043;-72
2023/05/29 02:18:39;;;;;;;10.30;2.35;;;9.30;99.90;;;;;;5053833;28;20076;-72
2023/05/29 02:21:04;;;;;;;8.70;1.60;;;9.30;99.90;;;;;;5052500;28;20386;-72
2023/05/29 02:23:30;;;;;;;12.38;2.33;;;9.30;99.90;;;;;;5043721;28;20033;-72
2023/05/29 02:25:55;;;;;;;9.93;2.20;;;9.30;99.90;;;;;;5053435;28;20048;-72
2023/05/29 02:28:21;;;;;;;8.95;1.95;;;9.30;99.90;;;;;;5051922;28;20477;-72
2023/05/29 02:30:47;;;;;;;10.43;1.88;;;9.30;99.90;;;;;;5037454;28;20493;-73
2023/05/29 02:33:12;;;;;;;9.85;1.88;;;9.30;99.90;;;;;;5046843;28;20130;-73
2023/05/29 02:35:38;;;;;;;9.27;2.03;;;9.30;99.90;;;;;;5058614;28;20091;-72
2023/05/29 02:38:03;;;;;;;9.38;1.77;;;9.20;99.90;;;;;;5041231;28;20037;-71
2023/05/29 02:40:29;;;;;;;9.23;2.05;;;9.20;99.90;;;;;;5065825;28;20044;-72
2023/05/29 02:42:55;;;;;;;10.73;2.92;;;9.20;99.90;;;;;;5060960;28;20482;-72
2023/05/29 02:45:20;;;;;;;9.63;1.92;;;9.20;99.90;;;;;;5033026;28;20041;-72
2023/05/29 02:47:46;;;;;;;8.13;1.80;;;9.20;99.90;;;;;;5033120;28;20037;-72
2023/05/29 02:50:14;;;;;;;6.47;1.88;;;9.20;99.90;;;;;;5032739;28;20041;-72
2023/05/29 02:52:40;;;;;;;8.93;1.50;;;9.20;99.90;;;;;;5020577;28;20068;-72
2023/05/29 02:55:06;;;;;;;6.28;1.70;;;9.10;99.90;;;;;;5031406;28;20050;-72
2023/05/29 02:57:32;;;;;;;9.13;1.85;;;9.10;99.90;;;;;;5039616;28;20374;-72
2023/05/29 02:59:58;;;;;;;7.38;1.75;;;9.10;99.90;;;;;;5051773;28;20040;-72
2023/05/29 03:02:23;;;;;;;11.30;2.00;;;9.10;99.90;;;;;;5031534;28;20398;-72
2023/05/29 03:04:50;;;;;;;8.32;1.73;;;9.00;99.90;;;;;;5044454;28;20049;-72
2023/05/29 03:07:16;;;;;;;11.20;2.92;;;9.00;99.90;;;;;;5048187;28;20111;-72
2023/05/29 03:09:42;;;;;;;11.07;2.15;;;9.00;99.90;;;;;;5031533;28;20049;-72
2023/05/29 03:12:08;;;;;;;8.50;1.90;;;9.00;99.90;;;;;;5047714;28;20486;-72
2023/05/29 03:14:35;;;;;;;9.23;2.03;;;8.90;99.90;;;;;;5050901;28;20073;-72
2023/05/29 03:17:05;;;;;;;7.43;1.52;;;8.90;99.90;;;;;;5051096;28;20037;-72
2023/05/29 03:19:31;;;;;;;6.90;1.60;;;8.80;99.90;;;;;;5041216;28;20052;-72
2023/05/29 03:21:57;;;;;;;10.00;1.77;;;8.80;99.90;;;;;;5048449;28;20033;-72
2023/05/29 03:24:23;;;;;;;6.82;1.77;;;8.80;99.90;;;;;;5033333;28;20033;-72
2023/05/29 03:26:49;;;;;;;8.10;1.52;;;8.80;99.90;;;;;;5032731;28;20091;-72
2023/05/29 03:29:16;;;;;;;8.45;1.88;;;8.70;99.90;;;;;;5060084;28;20069;-72
2023/05/29 03:31:42;;;;;;;8.27;2.20;;;8.70;99.90;;;;;;5042819;28;20545;-72
2023/05/29 03:34:07;;;;;;;10.30;2.03;;;8.80;99.90;;;;;;5031137;28;20179;-72
2023/05/29 03:36:36;;;;;;;9.55;1.90;;;8.80;99.90;;;;;;5047693;28;20482;-72
2023/05/29 03:39:02;;;;;;;6.90;1.50;;;8.70;99.90;;;;;;5031274;28;20042;-72
2023/05/29 03:41:28;;;;;;;6.57;1.80;;;8.70;99.90;;;;;;5047872;28;20042;-72
2023/05/29 03:43:53;;;;;;;4.80;1.52;;;8.70;99.90;;;;;;5055012;28;20029;-72
2023/05/29 03:46:19;;;;;;;4.97;1.52;;;8.70;99.90;;;;;;5032358;28;20132;-72
2023/05/29 03:48:44;;;;;;;5.18;1.65;;;8.70;99.90;;;;;;5014781;28;20045;-72
2023/05/29 03:51:10;;;;;;;7.40;1.00;;;8.70;99.90;;;;;;5052323;28;20033;-72
2023/05/29 03:53:35;;;;;;;6.97;1.15;;;8.70;99.90;;;;;;5034452;28;20049;-72
2023/05/29 03:56:01;;;;;;;5.53;2.03;;;8.70;99.90;;;;;;5033894;28;20064;-72
2023/05/29 03:58:27;;;;;;;8.35;1.70;;;8.60;99.90;;;;;;5044262;28;20561;-72
2023/05/29 04:00:52;;;;;;;6.72;1.60;;;8.60;99.90;;;;;;5032239;28;20037;-72
2023/05/29 04:03:18;;;;;;;9.48;1.60;;;8.60;99.90;;;;;;5060759;28;20095;-72
2023/05/29 04:05:44;;;;;;;6.65;1.58;;;8.60;99.90;;;;;;5047595;28;20083;-72
2023/05/29 04:08:10;;;;;;;3.35;1.33;;;8.70;99.90;;;;;;5031029;28;20141;-72
2023/05/29 04:10:36;;;;;;;5.43;1.58;;;8.70;99.90;;;;;;5032245;28;20053;-72
2023/05/29 04:13:02;;;;;;;7.38;1.48;;;8.70;99.90;;;;;;5044266;28;20111;-72
2023/05/29 04:15:28;;;;;;;7.55;1.35;;;8.70;99.90;;;;;;5035744;28;20033;-72
2023/05/29 04:17:54;;;;;;;4.80;1.10;;;8.70;99.90;;;;;;5051378;28;20429;-72
2023/05/29 04:20:20;;;;;;;8.52;1.67;;;8.70;99.90;;;;;;5067801;28;20037;-72
2023/05/29 04:22:46;;;;;;;6.78;1.38;;;8.70;99.90;;;;;;5046745;28;20052;-72
2023/05/29 04:25:12;;;;;;;8.25;1.42;;;8.70;99.90;;;;;;5048215;28;20045;-72
2023/05/29 04:27:38;;;;;;;6.10;1.25;;;8.70;99.90;;;;;;5058102;28;20048;-72
2023/05/29 04:30:07;;;;;;;6.80;1.38;;;8.60;99.90;;;;;;5042600;28;20117;-72
2023/05/29 04:32:33;;;;;;;8.00;1.90;;;8.70;99.90;;;;;;5063920;28;20133;-72
2023/05/29 04:35:02;;;;;;;10.57;1.65;;;8.70;99.90;;;;;;5035580;28;20453;-72
2023/05/29 04:37:37;;;;;;;7.05;1.65;;;8.70;99.90;;;;;;5050825;28;20482;-72
2023/05/29 04:40:08;;;;;;;9.68;1.80;;;8.80;99.90;;;;;;5036870;28;20538;-73
2023/05/29 04:42:34;;;;;;;10.30;1.67;;;8.80;99.90;;;;;;5038614;28;20159;-73
2023/05/29 04:45:00;;;;;;;8.40;1.65;;;8.90;99.90;;;;;;5035072;28;20123;-73
2023/05/29 04:47:26;;;;;;;6.95;1.60;;;8.90;99.90;;;;;;5050705;28;20053;-73
2023/05/29 04:49:51;;;;;;;7.75;1.92;;;8.90;99.90;;;;;;5036597;28;20147;-72
2023/05/29 04:52:17;;;;;;;6.85;1.42;;;9.00;99.90;;;;;;5053685;28;20044;-72
2023/05/29 04:54:43;;;;;;;10.00;1.85;;;9.00;99.90;;;;;;5053471;28;20116;-72
2023/05/29 04:57:09;;;;;;;11.73;3.20;;;9.10;99.90;;;;;;5033538;28;20037;-72
2023/05/29 04:59:34;;;;;;;8.20;1.70;;;9.10;99.90;;;;;;5063567;28;20048;-72
2023/05/29 05:02:01;;;;;;;7.93;1.77;;;9.20;99.90;;;;;;5035123;28;20041;-72
2023/05/29 05:04:26;;;;;;;13.02;2.28;;;9.30;99.90;;;;;;5050223;28;20509;-72
2023/05/29 05:06:52;;;;;;;13.13;2.30;;;9.30;99.90;;;;;;5050526;28;20036;-72
2023/05/29 05:09:17;;;;;;;15.13;2.40;;;9.30;99.90;;;;;;5051960;28;20047;-72
2023/05/29 05:11:43;;;;;;;7.60;1.50;;;9.40;99.90;;;;;;5037989;28;20037;-72
2023/05/29 05:14:09;;;;;;;9.82;2.25;;;9.40;99.90;;;;;;5053266;28;20045;-72
2023/05/29 05:16:34;;;;;;;9.77;2.17;;;9.50;99.90;;;;;;5040036;28;20046;-72
2023/05/29 05:19:00;;;;;;;7.85;1.88;;;9.50;99.90;;;;;;5049906;28;20095;-72
2023/05/29 05:21:26;;;;;;;12.60;2.47;;;9.60;99.90;;;;;;5045483;28;20112;-72
2023/05/29 05:23:51;;;;;;;14.73;2.28;;;9.70;99.90;;;;;;5035738;28;20436;-72
2023/05/29 05:26:17;;;;;;;9.85;2.25;;;9.70;99.90;;;;;;5034937;28;20034;-72
2023/05/29 05:28:42;;;;;;;10.48;1.90;;;9.70;99.90;;;;;;5042070;28;20037;-72
2023/05/29 05:31:08;;;;;;;14.32;2.35;;;9.80;99.90;;;;;;5042958;28;20072;-71
2023/05/29 05:33:34;;;;;;;12.85;3.03;;;9.80;99.90;;;;;;5027176;28;20037;-73
2023/05/29 05:36:00;;;;;;;9.57;2.13;;;9.80;99.90;;;;;;5051434;28;20029;-73
2023/05/29 05:38:26;;;;;;;12.43;2.92;;;9.90;99.90;;;;;;5034644;28;20039;-72
2023/05/29 05:40:51;;;;;;;11.68;2.10;;;9.90;99.90;;;;;;5033324;28;20049;-73
2023/05/29 05:43:17;;;;;;;8.80;1.70;;;10.00;99.90;;;;;;5033908;28;20045;-73
2023/05/29 05:45:42;;;;;;;11.88;2.28;;;10.10;99.90;;;;;;5061753;28;20073;-73
2023/05/29 05:48:08;;;;;;;9.00;2.03;;;10.10;99.90;;;;;;5036722;28;20041;-73
2023/05/29 05:50:34;;;;;;;9.77;2.38;;;10.20;99.90;;;;;;5054499;28;20045;-72
2023/05/29 05:53:00;;;;;;;13.90;2.30;;;10.30;99.90;;;;;;5035221;28;20056;-73
2023/05/29 05:55:27;;;;;;;11.07;1.90;;;10.40;99.90;;;;;;5041399;28;20045;-73
2023/05/29 05:57:54;;;;;;;12.38;2.28;;;10.50;99.90;;;;;;5037237;28;20060;-72
2023/05/29 06:00:19;;;;;;;11.80;2.00;;;10.60;99.90;;;;;;5036660;28;20048;-71
2023/05/29 06:02:45;;;;;;;11.65;2.00;;;10.80;99.90;;;;;;5041948;28;20453;-71
2023/05/29 06:05:11;;;;;;;12.60;2.63;;;10.80;99.90;;;;;;5065515;28;20398;-71
2023/05/29 06:07:37;;;;;;;16.17;2.85;;;10.90;99.90;;;;;;5026947;28;20052;-72
2023/05/29 06:10:04;;;;;;;12.00;2.80;;;10.90;99.90;;;;;;5038540;28;20559;-72
2023/05/29 06:12:30;;;;;;;11.52;2.35;;;11.00;99.90;;;;;;5062802;28;20045;-72
2023/05/29 06:14:55;;;;;;;11.00;2.20;;;11.00;99.90;;;;;;5032215;28;20128;-72
2023/05/29 06:17:21;;;;;;;8.13;2.33;;;11.10;99.90;;;;;;5034905;28;20459;-72
2023/05/29 06:19:47;;;;;;;12.40;2.83;;;11.20;99.90;;;;;;5052700;28;20493;-72
2023/05/29 06:22:14;;;;;;;14.77;3.38;;;11.30;99.90;;;;;;5050130;28;20041;-72
2023/05/29 06:24:39;;;;;;;16.65;3.13;;;11.30;99.90;;;;;;5050780;28;20389;-72
2023/05/29 06:27:06;;;;;;;13.90;3.22;;;11.50;99.90;;;;;;5047215;28;20045;-72
2023/05/29 06:29:32;;;;;;;12.25;2.47;;;11.60;99.90;;;;;;5036291;28;20037;-72
2023/05/29 06:31:57;;;;;;;16.67;3.78;;;11.70;99.90;;;;;;5043772;28;20139;-72
2023/05/29 06:34:23;;;;;;;13.90;3.10;;;11.80;99.90;;;;;;5037273;28;20128;-72
2023/05/29 06:36:49;;;;;;;11.70;2.88;;;11.90;99.90;;;;;;5053915;28;20482;-72
2023/05/29 06:39:15;;;;;;;9.90;2.53;;;11.90;99.90;;;;;;5038534;28;20460;-72
2023/05/29 06:41:40;;;;;;;15.85;2.70;;;12.00;99.90;;;;;;5034788;28;20052;-72
2023/05/29 06:44:06;;;;;;;14.15;2.70;;;12.00;99.90;;;;;;5049992;28;20119;-72
2023/05/29 06:46:32;;;;;;;14.68;2.75;;;12.00;99.90;;;;;;5042097;28;20041;-72
2023/05/29 06:48:57;;;;;;;17.25;2.72;;;12.10;99.90;;;;;;5044818;28;20083;-72
2023/05/29 06:51:23;;;;;;;14.32;2.92;;;12.10;99.90;;;;;;5042867;28;20033;-72
2023/05/29 06:53:48;;;;;;;14.82;2.45;;;12.10;99.90;;;;;;5038038;28;20064;-72
2023/05/29 06:56:14;;;;;;;13.02;2.75;;;12.20;99.90;;;;;;5054781;28;20072;-72
2023/05/29 06:58:40;;;;;;;14.65;2.65;;;12.20;99.90;;;;;;5039544;28;20052;-72
2023/05/29 07:01:05;;;;;;;15.18;2.80;;;12.30;99.90;;;;;;5038412;28;20036;-72
2023/05/29 07:03:31;;;;;;;12.45;2.42;;;12.30;99.90;;;;;;5051196;28;20029;-71
2023/05/29 07:05:57;;;;;;;10.63;2.40;;;12.40;99.90;;;;;;5037281;28;20065;-72
2023/05/29 07:08:24;;;;;;;13.30;3.05;;;12.40;99.90;;;;;;5054998;28;20120;-72
2023/05/29 07:10:50;;;;;;;11.50;3.10;;;12.50;99.90;;;;;;5038624;28;20091;-72
2023/05/29 07:13:17;;;;;;;11.95;2.50;;;12.60;99.90;;;;;;5044057;28;20056;-72
2023/05/29 07:15:44;;;;;;;12.70;2.40;;;12.60;99.90;;;;;;5038747;28;20037;-72
2023/05/29 07:18:09;;;;;;;16.42;3.17;;;12.80;99.90;;;;;;5026542;28;20094;-72
2023/05/29 07:20:36;;;;;;;14.02;2.70;;;12.80;99.90;;;;;;5035683;28;20041;-71
2023/05/29 07:23:03;;;;;;;12.27;2.40;;;13.00;99.90;;;;;;5037089;28;20037;-72
2023/05/29 07:25:29;;;;;;;14.63;2.97;;;13.00;99.90;;;;;;5020367;28;20045;-71
2023/05/29 07:27:55;;;;;;;13.75;2.63;;;12.90;99.90;;;;;;5046700;28;20128;-72
2023/05/29 07:30:20;;;;;;;16.70;2.78;;;12.90;99.90;;;;;;5046872;28;20520;-72
2023/05/29 07:32:46;;;;;;;14.38;2.80;;;12.90;99.90;;;;;;5034716;28;20049;-71
2023/05/29 07:35:11;;;;;;;14.80;2.75;;;13.00;99.90;;;;;;5052277;28;20036;-71
2023/05/29 07:37:37;;;;;;;11.25;2.92;;;13.00;99.90;;;;;;5040113;28;20049;-71
2023/05/29 07:40:07;;;;;;;9.45;2.70;;;13.00;99.90;;;;;;5052245;28;20044;-71
2023/05/29 07:42:33;;;;;;;10.40;2.50;;;12.90;99.90;;;;;;5039604;28;20055;-71
2023/05/29 07:44:59;;;;;;;10.43;2.58;;;12.90;99.90;;;;;;5037259;28;20553;-71
2023/05/29 07:47:25;;;;;;;11.60;2.60;;;12.90;99.90;;;;;;5056463;28;20036;-71
2023/05/29 07:49:51;;;;;;;10.68;2.53;;;13.00;99.90;;;;;;5038217;28;20095;-68
2023/05/29 07:52:17;;;;;;;15.23;2.97;;;13.10;99.90;;;;;;5047242;28;20505;-68
2023/05/29 07:54:43;;;;;;;11.30;2.53;;;13.10;99.90;;;;;;5054624;28;20080;-72
2023/05/29 07:57:09;;;;;;;10.60;2.47;;;13.30;99.90;;;;;;5049898;28;20033;-71
2023/05/29 07:59:41;;;;;;;15.65;3.38;;;13.30;99.90;;;;;;5051343;28;20100;-71
2023/05/29 08:02:07;;;;;;;10.82;2.78;;;13.30;99.90;;;;;;5050727;28;20037;-71
2023/05/29 08:04:33;;;;;;;14.30;3.05;;;13.30;99.90;;;;;;5052710;28;20041;-71
2023/05/29 08:07:01;;;;;;;13.55;2.72;;;13.40;99.90;;;;;;5049270;28;20099;-71
2023/05/29 08:09:26;;;;;;;21.25;3.20;;;13.30;99.90;;;;;;5050637;28;20037;-71
2023/05/29 08:11:52;;;;;;;8.40;2.05;;;13.40;99.90;;;;;;5046859;28;20045;-71
2023/05/29 08:14:18;;;;;;;11.13;2.85;;;13.40;99.90;;;;;;5042644;28;20147;-70
2023/05/29 08:16:43;;;;;;;13.10;2.63;;;13.50;99.90;;;;;;5052211;28;20394;-71
2023/05/29 08:19:09;;;;;;;13.07;3.20;;;13.50;99.90;;;;;;5041520;28;20068;-70
2023/05/29 08:21:35;;;;;;;14.20;3.00;;;13.60;99.90;;;;;;5070081;28;20044;-71
2023/05/29 08:24:04;;;;;;;17.13;3.45;;;13.60;99.90;;;;;;5042246;28;20040;-71
2023/05/29 08:26:30;;;;;;;16.83;2.85;;;13.80;99.90;;;;;;5042821;28;20413;-71
2023/05/29 08:28:56;;;;;;;16.40;3.20;;;13.80;99.90;;;;;;5044974;28;20045;-71
2023/05/29 08:31:24;;;;;;;10.20;3.00;;;13.90;99.90;;;;;;5042099;28;20037;-71
2023/05/29 08:33:50;;;;;;;13.68;2.35;;;13.90;99.90;;;;;;5041902;28;20397;-71
2023/05/29 08:36:16;;;;;;;16.50;2.80;;;14.00;99.90;;;;;;5032950;28;20041;-71
2023/05/29 08:38:41;;;;;;;10.05;2.20;;;13.90;99.90;;;;;;5045366;28;20037;-71
2023/05/29 08:41:08;;;;;;;13.98;3.20;;;14.00;99.90;;;;;;5045131;28;20036;-71
2023/05/29 08:43:34;;;;;;;17.40;3.28;;;14.00;99.90;;;;;;5050066;28;20033;-71
2023/05/29 08:46:02;;;;;;;18.02;3.13;;;13.90;99.90;;;;;;5036498;28;20041;-71
2023/05/29 08:48:30;;;;;;;12.50;3.08;;;14.00;99.90;;;;;;5043210;28;20119;-71
2023/05/29 08:50:57;;;;;;;19.10;3.33;;;14.00;99.90;;;;;;5046139;28;20033;-71
2023/05/29 08:53:23;;;;;;;16.17;2.97;;;14.00;99.90;;;;;;5033314;28;20111;-71
2023/05/29 08:55:51;;;;;;;12.73;2.70;;;14.00;99.90;;;;;;5055182;28;20053;-69
2023/05/29 08:58:17;;;;;;;14.38;2.95;;;14.10;99.90;;;;;;5050556;28;20370;-69
2023/05/29 09:00:45;;;;;;;18.15;3.15;;;14.10;99.90;;;;;;5025533;28;20044;-69
2023/05/29 09:03:12;;;;;;;15.27;2.75;;;14.00;99.90;;;;;;5042891;28;20041;-68
2023/05/29 09:05:41;;;;;;;13.73;3.03;;;14.00;99.90;;;;;;5046035;28;20567;-69
2023/05/29 09:08:11;;;;;;;18.60;3.20;;;14.00;99.90;;;;;;5041310;28;20103;-69
2023/05/29 09:10:41;;;;;;;14.82;2.65;;;14.10;99.90;;;;;;5042469;28;20519;-69
2023/05/29 09:13:07;;;;;;;8.40;1.90;;;14.10;99.90;;;;;;5067269;28;20103;-69
2023/05/29 09:15:33;;;;;;;16.70;3.08;;;14.10;99.90;;;;;;5043889;28;20048;-69
2023/05/29 09:17:59;;;;;;;20.38;3.33;;;14.20;99.90;;;;;;5047615;28;20433;-70
2023/05/29 09:20:25;;;;;;;12.85;2.25;;;14.20;99.90;;;;;;5038148;28;20029;-67
2023/05/29 09:22:54;;;;;;;16.52;2.67;;;14.20;99.90;;;;;;5044207;28;20498;-67
2023/05/29 09:25:22;;;;;;;15.35;3.33;;;14.40;99.90;;;;;;5046355;28;20037;-70
2023/05/29 09:27:52;;;;;;;16.15;2.97;;;14.40;99.90;;;;;;5046486;28;20068;-70
2023/05/29 09:30:31;;;;;;;13.13;2.75;;;14.50;99.90;;;;;;5044954;28;20098;-74
2023/05/29 09:32:58;;;;;;;18.05;3.35;;;14.60;99.90;;;;;;5063103;28;20045;-73
2023/05/29 09:35:23;;;;;;;16.60;3.13;;;14.60;99.90;;;;;;5049638;28;20060;-73
2023/05/29 09:37:50;;;;;;;13.38;2.92;;;14.50;99.90;;;;;;5043506;28;20029;-74
2023/05/29 09:40:15;;;;;;;20.55;3.35;;;14.50;99.90;;;;;;5037311;28;20086;-73
2023/05/29 09:42:41;;;;;;;17.50;3.17;;;14.60;99.90;;;;;;5057786;28;20041;-71
2023/05/29 09:45:08;;;;;;;15.45;2.70;;;14.60;99.90;;;;;;5046357;28;20094;-71
2023/05/29 09:47:35;;;;;;;13.25;2.30;;;14.60;99.90;;;;;;5041056;28;20052;-70
2023/05/29 09:50:01;;;;;;;13.00;2.80;;;14.70;99.90;;;;;;5051277;28;20049;-70
2023/05/29 09:52:30;;;;;;;17.33;3.30;;;14.70;99.90;;;;;;5042272;28;20060;-70
2023/05/29 09:54:56;;;;;;;15.18;2.55;;;14.80;99.90;;;;;;5035305;28;20124;-70
2023/05/29 09:57:24;;;;;;;15.02;2.60;;;14.70;99.90;;;;;;5034657;28;20045;-70
2023/05/29 09:59:52;;;;;;;15.63;2.83;;;14.70;99.90;;;;;;5027527;28;20042;-71
2023/05/29 10:02:18;;;;;;;16.42;3.03;;;14.80;99.90;;;;;;5062438;28;20049;-71
2023/05/29 10:04:44;;;;;;;13.88;2.58;;;15.00;99.90;;;;;;5038146;28;20127;-71
2023/05/29 10:07:20;;;;;;;15.40;3.22;;;14.90;99.90;;;;;;5056166;28;20494;-70
2023/05/29 10:09:50;;;;;;;17.00;3.67;;;15.00;99.90;;;;;;5044237;28;20055;-70
2023/05/29 10:12:20;;;;;;;18.00;3.70;;;15.10;99.90;;;;;;5046925;28;20037;-71
2023/05/29 10:14:48;;;;;;;13.73;3.25;;;15.10;99.90;;;;;;5043324;28;20048;-71
2023/05/29 10:17:16;;;;;;;15.68;2.65;;;15.20;99.90;;;;;;5064069;28;20041;-71
2023/05/29 10:19:43;;;;;;;14.77;1.98;;;15.10;99.90;;;;;;5056017;28;20047;-69
2023/05/29 10:22:10;;;;;;;20.23;2.92;;;15.10;99.90;;;;;;5063388;28;20501;-69
2023/05/29 10:24:37;;;;;;;15.00;3.15;;;15.10;99.90;;;;;;5050957;28;20049;-70
2023/05/29 10:27:04;;;;;;;12.15;2.58;;;15.30;99.90;;;;;;5060355;28;20445;-70
2023/05/29 10:29:41;;;;;;;15.52;2.90;;;15.30;99.90;;;;;;5040495;28;20037;-70
2023/05/29 10:32:35;;;;;;;14.27;2.58;;;15.40;99.90;;;;;;5056591;28;20049;-70
2023/05/29 10:35:16;;;;;;;15.20;2.30;;;15.50;99.90;;;;;;5032027;28;20049;-70
2023/05/29 10:37:54;;;;;;;13.80;2.63;;;15.40;99.90;;;;;;5036145;28;20041;-73
2023/05/29 10:40:26;;;;;;;16.10;2.67;;;15.30;99.90;;;;;;5042001;28;20030;-69
2023/05/29 10:42:57;;;;;;;14.38;2.85;;;15.30;99.90;;;;;;5032664;28;20049;-70
2023/05/29 10:45:29;;;;;;;14.20;2.10;;;15.40;99.90;;;;;;5053580;28;20048;-68
2023/05/29 10:47:56;;;;;;;12.82;2.80;;;15.60;99.90;;;;;;5036161;28;20660;-69
2023/05/29 10:50:41;;;;;;;14.20;3.10;;;15.60;99.90;;;;;;5036876;28;20059;-69
2023/05/29 10:53:10;;;;;;;11.15;2.65;;;15.70;99.90;;;;;;5038283;28;20048;-77
2023/05/29 10:55:39;;;;;;;18.38;3.55;;;15.60;99.90;;;;;;5036892;28;20440;-77
2023/05/29 10:58:06;;;;;;;10.88;2.35;;;15.60;99.90;;;;;;5036424;28;20037;-76
2023/05/29 11:00:32;;;;;;;15.27;2.92;;;15.70;99.90;;;;;;5034274;28;20045;-76
2023/05/29 11:03:05;;;;;;;15.65;3.08;;;15.70;99.90;;;;;;5039674;28;20025;-76
2023/05/29 11:05:30;;;;;;;15.63;2.58;;;15.80;99.90;;;;;;5040303;28;20498;-78
2023/05/29 11:07:59;;;;;;;376.98;36.42;;;15.80;99.90;;;;;;5030313;28;20051;-78
2023/05/29 11:10:46;;;;;;;11.82;2.40;;;15.90;99.90;;;;;;5042458;28;20056;-77
2023/05/29 11:13:35;;;;;;;97.03;10.02;;;15.90;99.90;;;;;;5046123;28;20406;-75
2023/05/29 11:16:25;;;;;;;187.25;18.77;;;15.90;99.90;;;;;;5033460;28;20184;-76
2023/05/29 11:18:52;;;;;;;15.93;2.40;;;15.90;99.90;;;;;;5048265;28;20084;-75
2023/05/29 11:21:30;;;;;;;21.73;3.05;;;16.00;99.90;;;;;;5035370;28;20386;-74
2023/05/29 11:23:58;;;;;;;14.75;2.75;;;16.00;99.90;;;;;;5054571;28;20041;-68
2023/05/29 11:26:27;;;;;;;13.52;2.92;;;16.00;99.90;;;;;;5056582;28;20507;-68
2023/05/29 11:28:53;;;;;;;9.95;2.20;;;15.80;99.90;;;;;;5055626;28;20431;-71
2023/05/29 11:31:22;;;;;;;11.07;2.42;;;15.90;99.90;;;;;;5036222;28;20049;-69
2023/05/29 11:33:50;;;;;;;13.27;2.30;;;15.90;99.90;;;;;;5037925;28;20049;-69
2023/05/29 11:36:19;;;;;;;10.98;2.50;;;16.00;99.90;;;;;;5049583;28;20124;-70
2023/05/29 11:38:44;;;;;;;10.45;2.53;;;15.90;99.90;;;;;;5039349;28;20037;-70
2023/05/29 11:41:10;;;;;;;9.73;1.85;;;15.80;99.90;;;;;;5046075;28;20054;-69
2023/05/29 11:43:35;;;;;;;9.25;2.35;;;16.00;99.90;;;;;;5023814;28;20402;-69
2023/05/29 11:46:02;;;;;;;10.57;2.55;;;16.10;99.90;;;;;;5021701;28;20045;-69
2023/05/29 11:48:27;;;;;;;15.93;2.65;;;16.00;99.90;;;;;;5045451;28;20500;-69
2023/05/29 11:50:53;;;;;;;10.85;2.28;;;15.70;99.90;;;;;;5043455;28;20045;-68
2023/05/29 11:53:19;;;;;;;15.65;2.60;;;15.70;99.90;;;;;;5050057;28;20128;-69
2023/05/29 11:55:45;;;;;;;10.00;2.17;;;15.70;99.90;;;;;;5039965;28;20081;-70
2023/05/29 11:58:11;;;;;;;11.07;2.42;;;15.70;99.90;;;;;;5044290;28;20121;-69
2023/05/29 12:00:38;;;;;;;12.98;2.53;;;15.80;99.90;;;;;;5040073;28;20164;-73
2023/05/29 12:03:06;;;;;;;11.75;2.47;;;15.90;99.90;;;;;;5038687;28;20049;-69
2023/05/29 12:05:44;;;;;;;10.68;2.20;;;16.00;99.90;;;;;;5042930;28;20042;-69
2023/05/29 12:08:09;;;;;;;9.60;2.53;;;16.20;99.90;;;;;;5052358;28;20440;-69
2023/05/29 12:10:35;;;;;;;11.70;2.80;;;16.10;99.90;;;;;;5047164;28;20112;-69
2023/05/29 12:13:01;;;;;;;15.95;2.40;;;15.90;99.90;;;;;;5057426;28;20132;-69
2023/05/29 12:15:27;;;;;;;15.63;3.10;;;15.90;99.90;;;;;;5057212;28;20115;-69
2023/05/29 12:17:54;;;;;;;13.15;2.95;;;16.00;99.90;;;;;;5053073;28;20045;-70
2023/05/29 12:20:23;;;;;;;14.32;2.78;;;15.80;99.90;;;;;;5037703;28;20041;-69
2023/05/29 12:22:49;;;;;;;12.48;2.33;;;15.90;99.90;;;;;;5041514;28;20056;-69
2023/05/29 12:25:17;;;;;;;14.00;2.88;;;15.80;99.90;;;;;;5046045;28;20037;-69
2023/05/29 12:27:46;;;;;;;11.07;2.63;;;15.80;99.90;;;;;;5058470;28;20048;-70
2023/05/29 12:30:20;;;;;;;15.52;2.80;;;16.00;99.90;;;;;;5043731;28;20124;-69
2023/05/29 12:32:49;;;;;;;11.52;2.20;;;16.00;99.90;;;;;;5049443;28;20068;-69
2023/05/29 12:35:17;;;;;;;11.00;2.35;;;15.90;99.90;;;;;;5035015;28;20056;-70
2023/05/29 12:37:49;;;;;;;15.00;2.95;;;16.00;99.90;;;;;;5040407;28;20485;-70
2023/05/29 12:40:16;;;;;;;23.38;2.72;;;15.90;99.90;;;;;;5038754;28;20029;-77
2023/05/29 12:42:42;;;;;;;244.48;21.35;;;15.80;99.90;;;;;;5044800;28;20052;-74